sensor_id;sensor_type;location;lat;lon;timestamp;P1;durP1;ratioP1;P2;durP2;ratioP2
73585;SDS011;61865;50.232;18.614;2022-12-13T00:00:15;7.55;;;5.05;;
73585;SDS011;61865;50.232;18.614;2022-12-13T00:02:38;7.25;;;5.03;;
73585;SDS011;61865;50.232;18.614;2022-12-13T00:05:01;9.10;;;6.55;;
73585;SDS011;61865;50.232;18.614;2022-12-13T00:07:23;7.63;;;5.10;;
73585;SDS011;61865;50.232;18.614;2022-12-13T00:09:45;11.35;;;6.35;;
73585;SDS011;61865;50.232;18.614;2022-12-13T00:12:08;7.13;;;4.75;;
73585;SDS011;61865;50.232;18.614;2022-12-13T00:14:30;13.00;;;6.80;;
73585;SDS011;61865;50.232;18.614;2022-12-13T00:16:52;7.72;;;5.03;;
73585;SDS011;61865;50.232;18.614;2022-12-13T00:19:14;9.50;;;6.50;;
73585;SDS011;61865;50.232;18.614;2022-12-13T00:21:37;7.57;;;5.13;;
73585;SDS011;61865;50.232;18.614;2022-12-13T00:23:59;7.03;;;5.30;;
73585;SDS011;61865;50.232;18.614;2022-12-13T00:26:23;5.25;;;4.20;;
73585;SDS011;61865;50.232;18.614;2022-12-13T00:28:47;10.30;;;5.97;;
73585;SDS011;61865;50.232;18.614;2022-12-13T00:31:10;7.25;;;5.32;;
73585;SDS011;61865;50.232;18.614;2022-12-13T00:33:32;10.35;;;6.18;;
73585;SDS011;61865;50.232;18.614;2022-12-13T00:35:54;7.65;;;5.75;;
73585;SDS011;61865;50.232;18.614;2022-12-13T00:38:16;10.70;;;6.40;;
73585;SDS011;61865;50.232;18.614;2022-12-13T00:40:38;8.85;;;5.60;;
73585;SDS011;61865;50.232;18.614;2022-12-13T00:43:00;8.43;;;5.78;;
73585;SDS011;61865;50.232;18.614;2022-12-13T00:45:23;7.88;;;5.90;;
73585;SDS011;61865;50.232;18.614;2022-12-13T00:47:45;7.65;;;5.47;;
73585;SDS011;61865;50.232;18.614;2022-12-13T00:50:07;10.13;;;5.47;;
73585;SDS011;61865;50.232;18.614;2022-12-13T00:52:29;6.80;;;5.03;;
73585;SDS011;61865;50.232;18.614;2022-12-13T00:54:51;8.80;;;6.07;;
73585;SDS011;61865;50.232;18.614;2022-12-13T00:57:13;8.70;;;6.72;;
73585;SDS011;61865;50.232;18.614;2022-12-13T00:59:35;6.93;;;4.82;;
73585;SDS011;61865;50.232;18.614;2022-12-13T01:01:58;9.05;;;6.68;;
73585;SDS011;61865;50.232;18.614;2022-12-13T01:04:20;9.57;;;6.85;;
73585;SDS011;61865;50.232;18.614;2022-12-13T01:06:43;8.98;;;6.75;;
73585;SDS011;61865;50.232;18.614;2022-12-13T01:09:11;9.13;;;6.88;;
73585;SDS011;61865;50.232;18.614;2022-12-13T01:11:37;10.80;;;7.32;;
73585;SDS011;61865;50.232;18.614;2022-12-13T01:13:59;11.10;;;6.57;;
73585;SDS011;61865;50.232;18.614;2022-12-13T01:16:21;9.73;;;5.63;;
73585;SDS011;61865;50.232;18.614;2022-12-13T01:18:44;9.38;;;6.10;;
73585;SDS011;61865;50.232;18.614;2022-12-13T01:21:07;14.00;;;6.35;;
73585;SDS011;61865;50.232;18.614;2022-12-13T01:23:31;12.20;;;8.63;;
73585;SDS011;61865;50.232;18.614;2022-12-13T01:25:54;5.35;;;4.80;;
73585;SDS011;61865;50.232;18.614;2022-12-13T01:28:16;12.52;;;8.05;;
73585;SDS011;61865;50.232;18.614;2022-12-13T01:30:38;13.45;;;7.78;;
73585;SDS011;61865;50.232;18.614;2022-12-13T01:33:00;9.75;;;7.18;;
73585;SDS011;61865;50.232;18.614;2022-12-13T01:35:23;13.50;;;8.80;;
73585;SDS011;61865;50.232;18.614;2022-12-13T01:37:45;11.25;;;7.93;;
73585;SDS011;61865;50.232;18.614;2022-12-13T01:40:08;10.00;;;7.63;;
73585;SDS011;61865;50.232;18.614;2022-12-13T01:42:31;11.63;;;8.73;;
73585;SDS011;61865;50.232;18.614;2022-12-13T01:44:57;11.18;;;8.25;;
73585;SDS011;61865;50.232;18.614;2022-12-13T01:47:23;10.13;;;6.85;;
73585;SDS011;61865;50.232;18.614;2022-12-13T01:49:48;13.13;;;8.60;;
73585;SDS011;61865;50.232;18.614;2022-12-13T01:52:12;11.07;;;8.68;;
73585;SDS011;61865;50.232;18.614;2022-12-13T01:54:35;14.18;;;8.63;;
73585;SDS011;61865;50.232;18.614;2022-12-13T01:57:01;14.05;;;8.40;;
73585;SDS011;61865;50.232;18.614;2022-12-13T01:59:26;13.93;;;9.35;;
73585;SDS011;61865;50.232;18.614;2022-12-13T02:01:48;12.63;;;8.63;;
73585;SDS011;61865;50.232;18.614;2022-12-13T02:04:11;12.52;;;8.40;;
73585;SDS011;61865;50.232;18.614;2022-12-13T02:06:34;10.32;;;7.50;;
73585;SDS011;61865;50.232;18.614;2022-12-13T02:08:58;12.65;;;7.68;;
73585;SDS011;61865;50.232;18.614;2022-12-13T02:11:21;9.48;;;6.85;;
73585;SDS011;61865;50.232;18.614;2022-12-13T02:13:43;12.13;;;8.23;;
73585;SDS011;61865;50.232;18.614;2022-12-13T02:16:07;11.25;;;7.60;;
73585;SDS011;61865;50.232;18.614;2022-12-13T02:18:40;7.00;;;5.05;;
73585;SDS011;61865;50.232;18.614;2022-12-13T02:21:12;9.38;;;7.13;;
73585;SDS011;61865;50.232;18.614;2022-12-13T02:23:59;11.52;;;7.60;;
73585;SDS011;61865;50.232;18.614;2022-12-13T02:26:53;13.52;;;7.78;;
73585;SDS011;61865;50.232;18.614;2022-12-13T02:29:30;12.48;;;8.18;;
73585;SDS011;61865;50.232;18.614;2022-12-13T02:32:20;11.38;;;8.52;;
73585;SDS011;61865;50.232;18.614;2022-12-13T02:34:49;12.48;;;7.70;;
73585;SDS011;61865;50.232;18.614;2022-12-13T02:37:19;12.02;;;7.40;;
73585;SDS011;61865;50.232;18.614;2022-12-13T02:39:46;11.15;;;7.22;;
73585;SDS011;61865;50.232;18.614;2022-12-13T02:42:15;16.92;;;7.20;;
73585;SDS011;61865;50.232;18.614;2022-12-13T02:44:42;13.23;;;7.68;;
73585;SDS011;61865;50.232;18.614;2022-12-13T02:47:10;12.18;;;8.43;;
73585;SDS011;61865;50.232;18.614;2022-12-13T02:49:36;14.75;;;8.98;;
73585;SDS011;61865;50.232;18.614;2022-12-13T02:52:01;10.95;;;8.05;;
73585;SDS011;61865;50.232;18.614;2022-12-13T02:54:26;13.40;;;8.18;;
73585;SDS011;61865;50.232;18.614;2022-12-13T02:56:54;9.65;;;7.20;;
73585;SDS011;61865;50.232;18.614;2022-12-13T02:59:16;15.00;;;8.38;;
73585;SDS011;61865;50.232;18.614;2022-12-13T03:01:41;11.38;;;7.43;;
73585;SDS011;61865;50.232;18.614;2022-12-13T03:04:12;13.85;;;7.90;;
73585;SDS011;61865;50.232;18.614;2022-12-13T03:06:48;11.85;;;7.80;;
73585;SDS011;61865;50.232;18.614;2022-12-13T03:09:21;10.70;;;7.22;;
73585;SDS011;61865;50.232;18.614;2022-12-13T03:11:55;13.02;;;8.23;;
73585;SDS011;61865;50.232;18.614;2022-12-13T03:14:47;12.73;;;7.68;;
73585;SDS011;61865;50.232;18.614;2022-12-13T03:17:16;12.77;;;7.38;;
73585;SDS011;61865;50.232;18.614;2022-12-13T03:19:40;13.02;;;8.15;;
73585;SDS011;61865;50.232;18.614;2022-12-13T03:22:05;11.02;;;7.60;;
73585;SDS011;61865;50.232;18.614;2022-12-13T03:24:27;16.52;;;8.45;;
73585;SDS011;61865;50.232;18.614;2022-12-13T03:26:49;15.90;;;8.20;;
73585;SDS011;61865;50.232;18.614;2022-12-13T03:29:12;10.18;;;7.03;;
73585;SDS011;61865;50.232;18.614;2022-12-13T03:31:34;14.40;;;7.40;;
73585;SDS011;61865;50.232;18.614;2022-12-13T03:33:56;12.27;;;8.02;;
73585;SDS011;61865;50.232;18.614;2022-12-13T03:36:18;13.23;;;8.23;;
73585;SDS011;61865;50.232;18.614;2022-12-13T03:38:41;13.93;;;8.65;;
73585;SDS011;61865;50.232;18.614;2022-12-13T03:41:04;11.43;;;6.88;;
73585;SDS011;61865;50.232;18.614;2022-12-13T03:43:29;12.88;;;7.53;;
73585;SDS011;61865;50.232;18.614;2022-12-13T03:45:51;13.60;;;7.60;;
73585;SDS011;61865;50.232;18.614;2022-12-13T03:48:14;12.63;;;7.53;;
73585;SDS011;61865;50.232;18.614;2022-12-13T03:50:35;11.38;;;7.47;;
73585;SDS011;61865;50.232;18.614;2022-12-13T03:52:57;12.82;;;8.00;;
73585;SDS011;61865;50.232;18.614;2022-12-13T03:55:21;14.40;;;8.40;;
73585;SDS011;61865;50.232;18.614;2022-12-13T03:57:43;11.30;;;7.45;;
73585;SDS011;61865;50.232;18.614;2022-12-13T04:00:05;15.02;;;7.90;;
73585;SDS011;61865;50.232;18.614;2022-12-13T04:02:28;12.63;;;7.43;;
73585;SDS011;61865;50.232;18.614;2022-12-13T04:04:50;10.10;;;6.88;;
73585;SDS011;61865;50.232;18.614;2022-12-13T04:07:12;11.65;;;7.18;;
73585;SDS011;61865;50.232;18.614;2022-12-13T04:09:34;10.73;;;7.10;;
73585;SDS011;61865;50.232;18.614;2022-12-13T04:11:57;11.15;;;7.00;;
73585;SDS011;61865;50.232;18.614;2022-12-13T04:14:37;12.05;;;6.40;;
73585;SDS011;61865;50.232;18.614;2022-12-13T04:16:58;10.90;;;7.57;;
73585;SDS011;61865;50.232;18.614;2022-12-13T04:19:20;13.77;;;8.05;;
73585;SDS011;61865;50.232;18.614;2022-12-13T04:21:42;10.75;;;6.65;;
73585;SDS011;61865;50.232;18.614;2022-12-13T04:24:04;11.55;;;7.47;;
73585;SDS011;61865;50.232;18.614;2022-12-13T04:26:26;14.25;;;6.82;;
73585;SDS011;61865;50.232;18.614;2022-12-13T04:28:50;11.05;;;6.68;;
73585;SDS011;61865;50.232;18.614;2022-12-13T04:31:12;10.05;;;6.53;;
73585;SDS011;61865;50.232;18.614;2022-12-13T04:33:34;11.07;;;5.90;;
73585;SDS011;61865;50.232;18.614;2022-12-13T04:35:56;10.52;;;6.85;;
73585;SDS011;61865;50.232;18.614;2022-12-13T04:38:18;11.38;;;7.05;;
73585;SDS011;61865;50.232;18.614;2022-12-13T04:40:40;12.95;;;7.47;;
73585;SDS011;61865;50.232;18.614;2022-12-13T04:43:02;10.65;;;6.25;;
73585;SDS011;61865;50.232;18.614;2022-12-13T04:45:25;7.85;;;5.45;;
73585;SDS011;61865;50.232;18.614;2022-12-13T04:47:47;11.10;;;6.25;;
73585;SDS011;61865;50.232;18.614;2022-12-13T04:50:09;12.75;;;6.00;;
73585;SDS011;61865;50.232;18.614;2022-12-13T04:52:31;10.60;;;6.90;;
73585;SDS011;61865;50.232;18.614;2022-12-13T04:54:54;9.40;;;5.88;;
73585;SDS011;61865;50.232;18.614;2022-12-13T04:57:16;9.65;;;6.18;;
73585;SDS011;61865;50.232;18.614;2022-12-13T04:59:38;13.88;;;6.47;;
73585;SDS011;61865;50.232;18.614;2022-12-13T05:02:01;10.02;;;5.97;;
73585;SDS011;61865;50.232;18.614;2022-12-13T05:04:24;10.23;;;6.25;;
73585;SDS011;61865;50.232;18.614;2022-12-13T05:06:46;10.13;;;5.82;;
73585;SDS011;61865;50.232;18.614;2022-12-13T05:09:08;8.15;;;5.75;;
73585;SDS011;61865;50.232;18.614;2022-12-13T05:11:30;10.00;;;6.15;;
73585;SDS011;61865;50.232;18.614;2022-12-13T05:13:52;10.40;;;5.88;;
73585;SDS011;61865;50.232;18.614;2022-12-13T05:16:14;10.20;;;6.43;;
73585;SDS011;61865;50.232;18.614;2022-12-13T05:18:37;9.70;;;6.50;;
73585;SDS011;61865;50.232;18.614;2022-12-13T05:21:00;12.05;;;6.40;;
73585;SDS011;61865;50.232;18.614;2022-12-13T05:23:23;11.65;;;6.35;;
73585;SDS011;61865;50.232;18.614;2022-12-13T05:25:45;14.48;;;6.28;;
73585;SDS011;61865;50.232;18.614;2022-12-13T05:28:07;11.00;;;5.70;;
73585;SDS011;61865;50.232;18.614;2022-12-13T05:30:29;11.85;;;6.95;;
73585;SDS011;61865;50.232;18.614;2022-12-13T05:32:51;10.48;;;6.53;;
73585;SDS011;61865;50.232;18.614;2022-12-13T05:35:14;9.50;;;6.63;;
73585;SDS011;61865;50.232;18.614;2022-12-13T05:37:36;10.90;;;6.53;;
73585;SDS011;61865;50.232;18.614;2022-12-13T05:39:58;9.00;;;6.10;;
73585;SDS011;61865;50.232;18.614;2022-12-13T05:42:20;11.38;;;6.63;;
73585;SDS011;61865;50.232;18.614;2022-12-13T05:44:42;8.63;;;5.80;;
73585;SDS011;61865;50.232;18.614;2022-12-13T05:47:04;9.55;;;6.30;;
73585;SDS011;61865;50.232;18.614;2022-12-13T05:49:26;9.55;;;5.68;;
73585;SDS011;61865;50.232;18.614;2022-12-13T05:51:49;10.02;;;6.28;;
73585;SDS011;61865;50.232;18.614;2022-12-13T05:54:11;10.07;;;6.95;;
73585;SDS011;61865;50.232;18.614;2022-12-13T05:56:33;9.85;;;6.50;;
73585;SDS011;61865;50.232;18.614;2022-12-13T05:58:55;10.52;;;7.72;;
73585;SDS011;61865;50.232;18.614;2022-12-13T06:01:17;12.13;;;7.70;;
73585;SDS011;61865;50.232;18.614;2022-12-13T06:03:39;18.35;;;12.82;;
73585;SDS011;61865;50.232;18.614;2022-12-13T06:06:01;13.27;;;8.48;;
73585;SDS011;61865;50.232;18.614;2022-12-13T06:08:25;12.23;;;7.57;;
73585;SDS011;61865;50.232;18.614;2022-12-13T06:10:52;11.00;;;6.63;;
73585;SDS011;61865;50.232;18.614;2022-12-13T06:13:14;9.80;;;7.15;;
73585;SDS011;61865;50.232;18.614;2022-12-13T06:15:36;9.52;;;6.63;;
73585;SDS011;61865;50.232;18.614;2022-12-13T06:17:58;8.30;;;6.28;;
73585;SDS011;61865;50.232;18.614;2022-12-13T06:20:20;11.40;;;7.35;;
73585;SDS011;61865;50.232;18.614;2022-12-13T06:22:42;18.08;;;8.68;;
73585;SDS011;61865;50.232;18.614;2022-12-13T06:25:06;14.82;;;8.63;;
73585;SDS011;61865;50.232;18.614;2022-12-13T06:27:28;18.23;;;9.10;;
73585;SDS011;61865;50.232;18.614;2022-12-13T06:29:50;17.35;;;8.57;;
73585;SDS011;61865;50.232;18.614;2022-12-13T06:32:12;17.08;;;8.75;;
73585;SDS011;61865;50.232;18.614;2022-12-13T06:34:34;11.90;;;7.43;;
73585;SDS011;61865;50.232;18.614;2022-12-13T06:36:57;10.63;;;7.47;;
73585;SDS011;61865;50.232;18.614;2022-12-13T06:39:18;12.00;;;7.47;;
73585;SDS011;61865;50.232;18.614;2022-12-13T06:41:42;13.18;;;8.18;;
73585;SDS011;61865;50.232;18.614;2022-12-13T06:44:04;12.27;;;8.30;;
73585;SDS011;61865;50.232;18.614;2022-12-13T06:46:26;13.07;;;8.13;;
73585;SDS011;61865;50.232;18.614;2022-12-13T06:48:48;15.00;;;8.05;;
73585;SDS011;61865;50.232;18.614;2022-12-13T06:51:14;13.90;;;9.13;;
73585;SDS011;61865;50.232;18.614;2022-12-13T06:53:37;15.40;;;9.00;;
73585;SDS011;61865;50.232;18.614;2022-12-13T06:56:01;15.30;;;8.05;;
73585;SDS011;61865;50.232;18.614;2022-12-13T06:58:25;11.55;;;7.95;;
73585;SDS011;61865;50.232;18.614;2022-12-13T07:00:47;12.68;;;7.95;;
73585;SDS011;61865;50.232;18.614;2022-12-13T07:03:12;12.10;;;7.85;;
73585;SDS011;61865;50.232;18.614;2022-12-13T07:05:36;13.25;;;7.72;;
73585;SDS011;61865;50.232;18.614;2022-12-13T07:07:58;11.48;;;7.60;;
73585;SDS011;61865;50.232;18.614;2022-12-13T07:10:19;16.75;;;9.98;;
73585;SDS011;61865;50.232;18.614;2022-12-13T07:12:42;28.13;;;14.32;;
73585;SDS011;61865;50.232;18.614;2022-12-13T07:15:06;22.73;;;15.30;;
73585;SDS011;61865;50.232;18.614;2022-12-13T07:17:29;26.00;;;15.23;;
73585;SDS011;61865;50.232;18.614;2022-12-13T07:19:51;30.83;;;18.00;;
73585;SDS011;61865;50.232;18.614;2022-12-13T07:22:13;42.13;;;23.67;;
73585;SDS011;61865;50.232;18.614;2022-12-13T07:24:35;54.83;;;28.17;;
73585;SDS011;61865;50.232;18.614;2022-12-13T07:26:57;47.38;;;24.85;;
73585;SDS011;61865;50.232;18.614;2022-12-13T07:29:19;26.73;;;17.60;;
73585;SDS011;61865;50.232;18.614;2022-12-13T07:31:42;26.02;;;14.93;;
73585;SDS011;61865;50.232;18.614;2022-12-13T07:34:04;21.33;;;12.65;;
73585;SDS011;61865;50.232;18.614;2022-12-13T07:36:26;23.60;;;13.90;;
73585;SDS011;61865;50.232;18.614;2022-12-13T07:38:51;24.05;;;14.88;;
73585;SDS011;61865;50.232;18.614;2022-12-13T07:41:14;25.75;;;16.13;;
73585;SDS011;61865;50.232;18.614;2022-12-13T07:43:36;23.88;;;14.98;;
73585;SDS011;61865;50.232;18.614;2022-12-13T07:45:58;49.85;;;24.25;;
73585;SDS011;61865;50.232;18.614;2022-12-13T07:48:22;39.03;;;21.33;;
73585;SDS011;61865;50.232;18.614;2022-12-13T07:50:44;25.67;;;14.20;;
73585;SDS011;61865;50.232;18.614;2022-12-13T07:53:06;22.77;;;14.30;;
73585;SDS011;61865;50.232;18.614;2022-12-13T07:55:29;24.73;;;13.50;;
73585;SDS011;61865;50.232;18.614;2022-12-13T07:57:51;22.27;;;14.35;;
73585;SDS011;61865;50.232;18.614;2022-12-13T08:00:13;21.58;;;13.77;;
73585;SDS011;61865;50.232;18.614;2022-12-13T08:02:35;18.88;;;11.77;;
73585;SDS011;61865;50.232;18.614;2022-12-13T08:04:59;19.05;;;11.95;;
73585;SDS011;61865;50.232;18.614;2022-12-13T08:07:21;22.70;;;12.20;;
73585;SDS011;61865;50.232;18.614;2022-12-13T08:09:43;20.48;;;11.40;;
73585;SDS011;61865;50.232;18.614;2022-12-13T08:12:05;20.98;;;12.80;;
73585;SDS011;61865;50.232;18.614;2022-12-13T08:14:27;19.83;;;12.32;;
73585;SDS011;61865;50.232;18.614;2022-12-13T08:16:49;21.75;;;12.68;;
73585;SDS011;61865;50.232;18.614;2022-12-13T08:19:11;19.83;;;11.30;;
73585;SDS011;61865;50.232;18.614;2022-12-13T08:21:35;20.45;;;12.57;;
73585;SDS011;61865;50.232;18.614;2022-12-13T08:23:58;24.30;;;13.73;;
73585;SDS011;61865;50.232;18.614;2022-12-13T08:26:20;23.00;;;13.02;;
73585;SDS011;61865;50.232;18.614;2022-12-13T08:28:44;21.42;;;13.02;;
73585;SDS011;61865;50.232;18.614;2022-12-13T08:31:06;25.85;;;14.85;;
73585;SDS011;61865;50.232;18.614;2022-12-13T08:33:32;28.67;;;14.50;;
73585;SDS011;61865;50.232;18.614;2022-12-13T08:35:54;28.00;;;15.82;;
73585;SDS011;61865;50.232;18.614;2022-12-13T08:38:17;29.75;;;14.43;;
73585;SDS011;61865;50.232;18.614;2022-12-13T08:40:39;24.25;;;14.25;;
73585;SDS011;61865;50.232;18.614;2022-12-13T08:43:01;23.23;;;12.90;;
73585;SDS011;61865;50.232;18.614;2022-12-13T08:45:24;18.35;;;11.50;;
73585;SDS011;61865;50.232;18.614;2022-12-13T08:47:46;16.77;;;10.05;;
73585;SDS011;61865;50.232;18.614;2022-12-13T08:50:08;17.15;;;9.95;;
73585;SDS011;61865;50.232;18.614;2022-12-13T08:52:30;16.17;;;10.45;;
73585;SDS011;61865;50.232;18.614;2022-12-13T08:54:54;18.73;;;11.30;;
73585;SDS011;61865;50.232;18.614;2022-12-13T08:57:16;14.70;;;9.80;;
73585;SDS011;61865;50.232;18.614;2022-12-13T08:59:38;19.08;;;11.18;;
73585;SDS011;61865;50.232;18.614;2022-12-13T09:02:00;24.98;;;12.63;;
73585;SDS011;61865;50.232;18.614;2022-12-13T09:04:22;20.77;;;12.57;;
73585;SDS011;61865;50.232;18.614;2022-12-13T09:06:44;25.20;;;12.57;;
73585;SDS011;61865;50.232;18.614;2022-12-13T09:09:06;18.63;;;12.30;;
73585;SDS011;61865;50.232;18.614;2022-12-13T09:11:29;31.83;;;15.25;;
73585;SDS011;61865;50.232;18.614;2022-12-13T09:13:51;29.13;;;14.05;;
73585;SDS011;61865;50.232;18.614;2022-12-13T09:16:13;29.55;;;15.85;;
73585;SDS011;61865;50.232;18.614;2022-12-13T09:18:37;31.33;;;16.00;;
73585;SDS011;61865;50.232;18.614;2022-12-13T09:21:04;33.88;;;15.82;;
73585;SDS011;61865;50.232;18.614;2022-12-13T09:23:27;27.80;;;16.88;;
73585;SDS011;61865;50.232;18.614;2022-12-13T09:25:51;34.35;;;16.77;;
73585;SDS011;61865;50.232;18.614;2022-12-13T09:28:16;29.13;;;14.60;;
73585;SDS011;61865;50.232;18.614;2022-12-13T09:30:39;30.17;;;15.35;;
73585;SDS011;61865;50.232;18.614;2022-12-13T09:33:02;25.60;;;14.38;;
73585;SDS011;61865;50.232;18.614;2022-12-13T09:35:24;30.80;;;14.52;;
73585;SDS011;61865;50.232;18.614;2022-12-13T09:37:46;28.33;;;14.07;;
73585;SDS011;61865;50.232;18.614;2022-12-13T09:40:09;29.40;;;13.57;;
73585;SDS011;61865;50.232;18.614;2022-12-13T09:42:38;30.10;;;15.65;;
73585;SDS011;61865;50.232;18.614;2022-12-13T09:45:06;29.52;;;14.82;;
73585;SDS011;61865;50.232;18.614;2022-12-13T09:47:32;28.25;;;14.55;;
73585;SDS011;61865;50.232;18.614;2022-12-13T09:49:57;31.88;;;17.30;;
73585;SDS011;61865;50.232;18.614;2022-12-13T09:52:22;31.30;;;16.42;;
73585;SDS011;61865;50.232;18.614;2022-12-13T09:54:45;31.55;;;15.98;;
73585;SDS011;61865;50.232;18.614;2022-12-13T09:57:08;35.13;;;16.40;;
73585;SDS011;61865;50.232;18.614;2022-12-13T09:59:36;29.10;;;14.48;;
73585;SDS011;61865;50.232;18.614;2022-12-13T10:02:06;36.50;;;17.30;;
73585;SDS011;61865;50.232;18.614;2022-12-13T10:04:36;33.15;;;15.88;;
73585;SDS011;61865;50.232;18.614;2022-12-13T10:06:58;31.35;;;15.88;;
73585;SDS011;61865;50.232;18.614;2022-12-13T10:09:21;32.05;;;15.13;;
73585;SDS011;61865;50.232;18.614;2022-12-13T10:11:47;26.27;;;14.63;;
73585;SDS011;61865;50.232;18.614;2022-12-13T10:14:10;22.23;;;12.75;;
73585;SDS011;61865;50.232;18.614;2022-12-13T10:16:39;23.88;;;12.45;;
73585;SDS011;61865;50.232;18.614;2022-12-13T10:19:11;23.60;;;12.20;;
73585;SDS011;61865;50.232;18.614;2022-12-13T10:21:38;17.73;;;10.57;;
73585;SDS011;61865;50.232;18.614;2022-12-13T10:24:03;21.63;;;12.32;;
73585;SDS011;61865;50.232;18.614;2022-12-13T10:26:34;13.85;;;8.68;;
73585;SDS011;61865;50.232;18.614;2022-12-13T10:29:00;16.45;;;9.48;;
73585;SDS011;61865;50.232;18.614;2022-12-13T10:31:23;16.95;;;9.00;;
73585;SDS011;61865;50.232;18.614;2022-12-13T10:33:50;15.90;;;10.02;;
73585;SDS011;61865;50.232;18.614;2022-12-13T10:36:29;16.95;;;8.85;;
73585;SDS011;61865;50.232;18.614;2022-12-13T10:38:52;18.35;;;10.23;;
73585;SDS011;61865;50.232;18.614;2022-12-13T10:44:07;20.80;;;12.02;;
73585;SDS011;61865;50.232;18.614;2022-12-13T10:46:35;25.33;;;12.18;;
73585;SDS011;61865;50.232;18.614;2022-12-13T10:48:57;20.92;;;11.18;;
73585;SDS011;61865;50.232;18.614;2022-12-13T10:51:20;11.95;;;6.95;;
73585;SDS011;61865;50.232;18.614;2022-12-13T10:53:44;18.13;;;8.57;;
73585;SDS011;61865;50.232;18.614;2022-12-13T10:56:07;10.35;;;7.13;;
73585;SDS011;61865;50.232;18.614;2022-12-13T10:58:34;13.40;;;6.05;;
73585;SDS011;61865;50.232;18.614;2022-12-13T11:00:58;10.00;;;6.90;;
73585;SDS011;61865;50.232;18.614;2022-12-13T11:03:31;12.82;;;6.65;;
73585;SDS011;61865;50.232;18.614;2022-12-13T11:06:00;10.90;;;7.00;;
73585;SDS011;61865;50.232;18.614;2022-12-13T11:08:25;15.15;;;7.78;;
73585;SDS011;61865;50.232;18.614;2022-12-13T11:10:55;12.50;;;7.40;;
73585;SDS011;61865;50.232;18.614;2022-12-13T11:13:21;10.68;;;6.80;;
73585;SDS011;61865;50.232;18.614;2022-12-13T11:15:50;11.63;;;7.38;;
73585;SDS011;61865;50.232;18.614;2022-12-13T11:18:17;9.82;;;6.38;;
73585;SDS011;61865;50.232;18.614;2022-12-13T11:20:46;16.13;;;8.10;;
73585;SDS011;61865;50.232;18.614;2022-12-13T11:23:24;10.95;;;6.78;;
73585;SDS011;61865;50.232;18.614;2022-12-13T11:25:53;11.30;;;6.70;;
73585;SDS011;61865;50.232;18.614;2022-12-13T11:28:20;10.88;;;6.28;;
73585;SDS011;61865;50.232;18.614;2022-12-13T11:30:56;15.00;;;7.00;;
73585;SDS011;61865;50.232;18.614;2022-12-13T11:33:31;10.55;;;6.25;;
73585;SDS011;61865;50.232;18.614;2022-12-13T11:36:03;10.60;;;6.63;;
73585;SDS011;61865;50.232;18.614;2022-12-13T11:38:37;12.30;;;7.15;;
73585;SDS011;61865;50.232;18.614;2022-12-13T11:41:15;12.82;;;7.05;;
73585;SDS011;61865;50.232;18.614;2022-12-13T11:43:40;8.55;;;5.45;;
73585;SDS011;61865;50.232;18.614;2022-12-13T11:46:10;10.55;;;6.90;;
73585;SDS011;61865;50.232;18.614;2022-12-13T11:48:39;11.48;;;7.20;;
73585;SDS011;61865;50.232;18.614;2022-12-13T11:51:05;12.73;;;7.57;;
73585;SDS011;61865;50.232;18.614;2022-12-13T11:53:32;12.20;;;7.22;;
73585;SDS011;61865;50.232;18.614;2022-12-13T11:55:59;22.20;;;9.18;;
73585;SDS011;61865;50.232;18.614;2022-12-13T11:58:29;22.25;;;10.32;;
73585;SDS011;61865;50.232;18.614;2022-12-13T12:00:57;18.75;;;8.80;;
73585;SDS011;61865;50.232;18.614;2022-12-13T12:03:26;22.23;;;11.07;;
73585;SDS011;61865;50.232;18.614;2022-12-13T12:05:56;14.25;;;7.40;;
73585;SDS011;61865;50.232;18.614;2022-12-13T12:08:24;10.93;;;7.05;;
73585;SDS011;61865;50.232;18.614;2022-12-13T12:10:56;17.85;;;9.70;;
73585;SDS011;61865;50.232;18.614;2022-12-13T12:13:28;14.68;;;8.82;;
73585;SDS011;61865;50.232;18.614;2022-12-13T12:15:55;18.67;;;10.13;;
73585;SDS011;61865;50.232;18.614;2022-12-13T12:18:25;18.40;;;11.57;;
73585;SDS011;61865;50.232;18.614;2022-12-13T12:20:52;21.15;;;12.32;;
73585;SDS011;61865;50.232;18.614;2022-12-13T12:23:26;21.30;;;12.23;;
73585;SDS011;61865;50.232;18.614;2022-12-13T12:26:03;24.00;;;13.13;;
73585;SDS011;61865;50.232;18.614;2022-12-13T12:28:30;37.60;;;16.52;;
73585;SDS011;61865;50.232;18.614;2022-12-13T12:31:05;26.52;;;13.32;;
73585;SDS011;61865;50.232;18.614;2022-12-13T12:33:36;23.20;;;13.50;;
73585;SDS011;61865;50.232;18.614;2022-12-13T12:36:06;32.58;;;16.63;;
73585;SDS011;61865;50.232;18.614;2022-12-13T12:38:49;29.88;;;15.90;;
73585;SDS011;61865;50.232;18.614;2022-12-13T12:41:34;27.30;;;14.70;;
73585;SDS011;61865;50.232;18.614;2022-12-13T12:44:10;30.85;;;15.10;;
73585;SDS011;61865;50.232;18.614;2022-12-13T12:46:46;23.25;;;13.38;;
73585;SDS011;61865;50.232;18.614;2022-12-13T12:49:23;27.40;;;14.45;;
73585;SDS011;61865;50.232;18.614;2022-12-13T12:52:06;48.80;;;23.15;;
73585;SDS011;61865;50.232;18.614;2022-12-13T12:54:38;44.80;;;22.05;;
73585;SDS011;61865;50.232;18.614;2022-12-13T12:57:07;34.20;;;19.80;;
73585;SDS011;61865;50.232;18.614;2022-12-13T12:59:38;45.15;;;20.17;;
73585;SDS011;61865;50.232;18.614;2022-12-13T13:02:11;28.98;;;12.93;;
73585;SDS011;61865;50.232;18.614;2022-12-13T13:04:40;28.25;;;13.45;;
73585;SDS011;61865;50.232;18.614;2022-12-13T13:07:09;23.95;;;13.38;;
73585;SDS011;61865;50.232;18.614;2022-12-13T13:09:33;28.25;;;14.35;;
73585;SDS011;61865;50.232;18.614;2022-12-13T13:11:56;25.52;;;15.75;;
73585;SDS011;61865;50.232;18.614;2022-12-13T13:14:28;28.05;;;15.40;;
73585;SDS011;61865;50.232;18.614;2022-12-13T13:16:51;29.50;;;15.57;;
73585;SDS011;61865;50.232;18.614;2022-12-13T13:22:02;29.92;;;14.93;;
73585;SDS011;61865;50.232;18.614;2022-12-13T13:24:25;28.95;;;16.00;;
73585;SDS011;61865;50.232;18.614;2022-12-13T13:26:50;20.77;;;12.60;;
73585;SDS011;61865;50.232;18.614;2022-12-13T13:29:31;23.70;;;13.35;;
73585;SDS011;61865;50.232;18.614;2022-12-13T13:31:56;22.23;;;13.20;;
73585;SDS011;61865;50.232;18.614;2022-12-13T13:34:20;23.92;;;13.18;;
73585;SDS011;61865;50.232;18.614;2022-12-13T13:36:44;26.75;;;14.38;;
73585;SDS011;61865;50.232;18.614;2022-12-13T13:39:10;22.92;;;13.75;;
73585;SDS011;61865;50.232;18.614;2022-12-13T13:41:55;21.42;;;13.13;;
73585;SDS011;61865;50.232;18.614;2022-12-13T13:44:32;20.75;;;12.25;;
73585;SDS011;61865;50.232;18.614;2022-12-13T13:47:13;18.17;;;10.50;;
73585;SDS011;61865;50.232;18.614;2022-12-13T13:49:36;19.98;;;11.45;;
73585;SDS011;61865;50.232;18.614;2022-12-13T13:52:13;17.33;;;10.83;;
73585;SDS011;61865;50.232;18.614;2022-12-13T14:00:40;23.77;;;13.10;;
73585;SDS011;61865;50.232;18.614;2022-12-13T14:06:30;25.90;;;15.95;;
73585;SDS011;61865;50.232;18.614;2022-12-13T14:09:38;24.45;;;14.43;;
73585;SDS011;61865;50.232;18.614;2022-12-13T14:21:37;26.27;;;15.13;;
73585;SDS011;61865;50.232;18.614;2022-12-13T14:26:58;24.90;;;16.10;;
73585;SDS011;61865;50.232;18.614;2022-12-13T14:29:39;28.08;;;15.75;;
73585;SDS011;61865;50.232;18.614;2022-12-13T14:32:07;35.80;;;17.75;;
73585;SDS011;61865;50.232;18.614;2022-12-13T14:34:31;27.50;;;16.92;;